sensor_id;sensor_type;location;lat;lon;timestamp;temperature;humidity
6468;DHT22;3267;48.794;9.928;2023-05-17T04:03:17;9.20;67.50
6468;DHT22;3267;48.794;9.928;2023-05-17T04:05:44;9.00;67.20
6468;DHT22;3267;48.794;9.928;2023-05-17T04:08:11;9.70;67.90
6468;DHT22;3267;48.794;9.928;2023-05-17T04:13:08;9.20;67.30
6468;DHT22;3267;48.794;9.928;2023-05-17T04:15:35;9.40;67.40
6468;DHT22;3267;48.794;9.928;2023-05-17T04:20:26;9.70;67.70
6468;DHT22;3267;48.794;9.928;2023-05-17T04:25:18;9.70;67.50
6468;DHT22;3267;48.794;9.928;2023-05-17T04:27:44;9.40;67.20
6468;DHT22;3267;48.794;9.928;2023-05-17T04:30:11;9.30;67.30
6468;DHT22;3267;48.794;9.928;2023-05-17T04:32:37;9.50;67.40
6468;DHT22;3267;48.794;9.928;2023-05-17T04:37:28;9.30;67.70
6468;DHT22;3267;48.794;9.928;2023-05-17T04:42:20;9.50;67.60
6468;DHT22;3267;48.794;9.928;2023-05-17T04:49:38;9.60;67.50
6468;DHT22;3267;48.794;9.928;2023-05-17T04:54:30;9.80;67.90
6468;DHT22;3267;48.794;9.928;2023-05-17T04:56:56;9.80;67.90
6468;DHT22;3267;48.794;9.928;2023-05-17T04:59:21;9.90;68.30
6468;DHT22;3267;48.794;9.928;2023-05-17T05:06:39;9.80;68.60
6468;DHT22;3267;48.794;9.928;2023-05-17T05:18:50;10.00;67.40
6468;DHT22;3267;48.794;9.928;2023-05-17T05:21:15;10.20;67.50
6468;DHT22;3267;48.794;9.928;2023-05-17T05:28:33;10.50;67.60
6468;DHT22;3267;48.794;9.928;2023-05-17T05:30:59;10.20;67.50
6468;DHT22;3267;48.794;9.928;2023-05-17T05:33:25;9.90;68.60
6468;DHT22;3267;48.794;9.928;2023-05-17T05:35:51;10.20;68.30
6468;DHT22;3267;48.794;9.928;2023-05-17T05:38:16;10.30;68.60
6468;DHT22;3267;48.794;9.928;2023-05-17T05:40:44;10.30;69.00
6468;DHT22;3267;48.794;9.928;2023-05-17T05:43:10;10.10;68.80
6468;DHT22;3267;48.794;9.928;2023-05-17T05:45:35;10.40;69.00
6468;DHT22;3267;48.794;9.928;2023-05-17T05:52:54;10.30;69.10
6468;DHT22;3267;48.794;9.928;2023-05-17T05:55:22;10.60;69.50
6468;DHT22;3267;48.794;9.928;2023-05-17T05:57:47;10.00;68.60
6468;DHT22;3267;48.794;9.928;2023-05-17T06:00:13;11.90;70.40
6468;DHT22;3267;48.794;9.928;2023-05-17T06:02:39;10.60;69.20
6468;DHT22;3267;48.794;9.928;2023-05-17T06:07:32;10.70;69.20
6468;DHT22;3267;48.794;9.928;2023-05-17T06:09:58;10.50;68.60
6468;DHT22;3267;48.794;9.928;2023-05-17T06:14:50;12.30;70.60
6468;DHT22;3267;48.794;9.928;2023-05-17T06:17:15;10.60;69.20
6468;DHT22;3267;48.794;9.928;2023-05-17T06:24:33;10.90;69.30
6468;DHT22;3267;48.794;9.928;2023-05-17T06:26:58;10.70;68.60
6468;DHT22;3267;48.794;9.928;2023-05-17T06:34:16;11.30;68.60
6468;DHT22;3267;48.794;9.928;2023-05-17T06:39:08;11.40;68.70
6468;DHT22;3267;48.794;9.928;2023-05-17T06:41:33;11.60;68.30
6468;DHT22;3267;48.794;9.928;2023-05-17T06:46:25;11.60;68.10
6468;DHT22;3267;48.794;9.928;2023-05-17T06:48:50;11.40;68.60
6468;DHT22;3267;48.794;9.928;2023-05-17T06:51:16;11.50;68.90
6468;DHT22;3267;48.794;9.928;2023-05-17T06:56:08;11.90;69.40
6468;DHT22;3267;48.794;9.928;2023-05-17T07:01:00;11.70;69.60
6468;DHT22;3267;48.794;9.928;2023-05-17T07:03:25;12.00;70.00
6468;DHT22;3267;48.794;9.928;2023-05-17T07:05:51;12.10;69.40
6468;DHT22;3267;48.794;9.928;2023-05-17T07:08:27;12.10;69.20
6468;DHT22;3267;48.794;9.928;2023-05-17T07:10:53;12.20;69.30
6468;DHT22;3267;48.794;9.928;2023-05-17T07:18:11;12.30;69.50
6468;DHT22;3267;48.794;9.928;2023-05-17T07:20:37;12.20;69.20
6468;DHT22;3267;48.794;9.928;2023-05-17T07:23:02;12.40;69.40
6468;DHT22;3267;48.794;9.928;2023-05-17T07:25:28;12.00;69.10
6468;DHT22;3267;48.794;9.928;2023-05-17T07:27:53;12.20;69.00
6468;DHT22;3267;48.794;9.928;2023-05-17T07:32:45;12.20;68.90
6468;DHT22;3267;48.794;9.928;2023-05-17T07:37:37;12.40;69.30
6468;DHT22;3267;48.794;9.928;2023-05-17T07:40:02;12.60;69.20
6468;DHT22;3267;48.794;9.928;2023-05-17T07:42:30;12.50;68.80
6468;DHT22;3267;48.794;9.928;2023-05-17T07:44:55;12.80;70.70
6468;DHT22;3267;48.794;9.928;2023-05-17T07:59:31;13.60;69.40
6468;DHT22;3267;48.794;9.928;2023-05-17T08:01:57;13.60;69.00
6468;DHT22;3267;48.794;9.928;2023-05-17T08:09:15;13.70;68.30
6468;DHT22;3267;48.794;9.928;2023-05-17T08:14:14;13.60;67.40
6468;DHT22;3267;48.794;9.928;2023-05-17T08:16:41;13.70;67.40
6468;DHT22;3267;48.794;9.928;2023-05-17T08:19:09;13.80;67.20
6468;DHT22;3267;48.794;9.928;2023-05-17T08:21:37;13.70;67.50
6468;DHT22;3267;48.794;9.928;2023-05-17T08:26:29;14.00;66.80
6468;DHT22;3267;48.794;9.928;2023-05-17T08:33:47;14.20;66.70
6468;DHT22;3267;48.794;9.928;2023-05-17T08:41:05;14.40;66.70
6468;DHT22;3267;48.794;9.928;2023-05-17T08:43:31;15.80;68.00
6468;DHT22;3267;48.794;9.928;2023-05-17T08:45:56;14.70;66.90
6468;DHT22;3267;48.794;9.928;2023-05-17T08:48:24;14.80;66.40
6468;DHT22;3267;48.794;9.928;2023-05-17T08:50:53;15.00;65.80
6468;DHT22;3267;48.794;9.928;2023-05-17T08:53:19;15.10;66.20
6468;DHT22;3267;48.794;9.928;2023-05-17T08:55:45;15.20;66.10
6468;DHT22;3267;48.794;9.928;2023-05-17T08:58:16;15.20;65.90
6468;DHT22;3267;48.794;9.928;2023-05-17T09:00:44;15.30;65.10
6468;DHT22;3267;48.794;9.928;2023-05-17T09:03:14;15.40;65.20
6468;DHT22;3267;48.794;9.928;2023-05-17T09:05:42;15.40;63.90
6468;DHT22;3267;48.794;9.928;2023-05-17T09:08:09;15.50;64.10
6468;DHT22;3267;48.794;9.928;2023-05-17T09:10:39;15.40;64.90
6468;DHT22;3267;48.794;9.928;2023-05-17T09:13:05;15.50;65.00
6468;DHT22;3267;48.794;9.928;2023-05-17T09:15:31;15.80;65.30
6468;DHT22;3267;48.794;9.928;2023-05-17T09:17:59;15.90;64.40
6468;DHT22;3267;48.794;9.928;2023-05-17T09:20:26;15.90;64.20
6468;DHT22;3267;48.794;9.928;2023-05-17T09:23:02;15.90;63.60
6468;DHT22;3267;48.794;9.928;2023-05-17T09:25:29;15.90;63.80
6468;DHT22;3267;48.794;9.928;2023-05-17T09:28:03;15.80;63.60
6468;DHT22;3267;48.794;9.928;2023-05-17T09:30:30;15.80;64.30
6468;DHT22;3267;48.794;9.928;2023-05-17T09:32:56;15.80;63.50
6468;DHT22;3267;48.794;9.928;2023-05-17T09:35:29;15.60;64.00
6468;DHT22;3267;48.794;9.928;2023-05-17T09:38:11;15.80;64.00
6468;DHT22;3267;48.794;9.928;2023-05-17T09:40:43;15.80;64.40
6468;DHT22;3267;48.794;9.928;2023-05-17T09:43:10;15.80;62.80
6468;DHT22;3267;48.794;9.928;2023-05-17T09:45:38;15.80;62.90
6468;DHT22;3267;48.794;9.928;2023-05-17T09:48:17;15.70;62.40
6468;DHT22;3267;48.794;9.928;2023-05-17T09:50:52;15.80;62.50
6468;DHT22;3267;48.794;9.928;2023-05-17T09:53:38;15.80;63.00
6468;DHT22;3267;48.794;9.928;2023-05-17T09:56:05;15.80;63.90
6468;DHT22;3267;48.794;9.928;2023-05-17T09:58:32;15.80;62.70
6468;DHT22;3267;48.794;9.928;2023-05-17T10:01:00;15.90;62.90
6468;DHT22;3267;48.794;9.928;2023-05-17T10:03:34;16.00;62.80
6468;DHT22;3267;48.794;9.928;2023-05-17T10:06:05;16.00;63.00
6468;DHT22;3267;48.794;9.928;2023-05-17T10:08:32;16.00;63.40
6468;DHT22;3267;48.794;9.928;2023-05-17T10:11:09;16.00;62.50
6468;DHT22;3267;48.794;9.928;2023-05-17T10:13:48;16.10;63.20
6468;DHT22;3267;48.794;9.928;2023-05-17T10:16:15;16.00;63.50
6468;DHT22;3267;48.794;9.928;2023-05-17T10:18:42;17.80;64.70
6468;DHT22;3267;48.794;9.928;2023-05-17T10:21:08;16.20;62.90
6468;DHT22;3267;48.794;9.928;2023-05-17T10:23:36;16.20;62.10
6468;DHT22;3267;48.794;9.928;2023-05-17T10:26:03;16.20;61.80
6468;DHT22;3267;48.794;9.928;2023-05-17T10:28:29;16.20;62.20
6468;DHT22;3267;48.794;9.928;2023-05-17T10:30:56;16.30;63.80
6468;DHT22;3267;48.794;9.928;2023-05-17T10:33:23;16.20;61.60
6468;DHT22;3267;48.794;9.928;2023-05-17T10:35:52;16.10;61.60
6468;DHT22;3267;48.794;9.928;2023-05-17T10:38:19;16.20;61.80
6468;DHT22;3267;48.794;9.928;2023-05-17T10:40:45;16.50;65.80
6468;DHT22;3267;48.794;9.928;2023-05-17T10:43:12;16.70;63.00
6468;DHT22;3267;48.794;9.928;2023-05-17T10:45:40;16.70;61.30
6468;DHT22;3267;48.794;9.928;2023-05-17T10:48:05;16.80;61.70
6468;DHT22;3267;48.794;9.928;2023-05-17T10:50:32;16.80;61.50
6468;DHT22;3267;48.794;9.928;2023-05-17T10:53:01;16.90;60.80
6468;DHT22;3267;48.794;9.928;2023-05-17T10:55:41;17.00;60.80
6468;DHT22;3267;48.794;9.928;2023-05-17T10:58:15;17.10;60.30
6468;DHT22;3267;48.794;9.928;2023-05-17T11:00:49;17.10;60.60
6468;DHT22;3267;48.794;9.928;2023-05-17T11:03:17;17.20;60.30
6468;DHT22;3267;48.794;9.928;2023-05-17T11:06:11;17.30;60.20
6468;DHT22;3267;48.794;9.928;2023-05-17T11:08:31;17.50;60.00
6468;DHT22;3267;48.794;9.928;2023-05-17T11:13:32;17.50;59.20
6468;DHT22;3267;48.794;9.928;2023-05-17T11:16:06;17.40;58.90
6468;DHT22;3267;48.794;9.928;2023-05-17T11:18:53;17.40;59.60
6468;DHT22;3267;48.794;9.928;2023-05-17T11:21:20;17.50;61.00
6468;DHT22;3267;48.794;9.928;2023-05-17T11:23:48;17.60;60.20
6468;DHT22;3267;48.794;9.928;2023-05-17T11:29:08;17.70;58.00
6468;DHT22;3267;48.794;9.928;2023-05-17T11:31:43;17.70;58.10
6468;DHT22;3267;48.794;9.928;2023-05-17T11:34:10;17.70;58.10
6468;DHT22;3267;48.794;9.928;2023-05-17T11:36:53;18.00;59.70
6468;DHT22;3267;48.794;9.928;2023-05-17T11:39:23;17.60;59.00
6468;DHT22;3267;48.794;9.928;2023-05-17T11:41:55;17.70;59.30
6468;DHT22;3267;48.794;9.928;2023-05-17T11:44:28;17.80;59.50
6468;DHT22;3267;48.794;9.928;2023-05-17T11:47:01;17.90;59.10
6468;DHT22;3267;48.794;9.928;2023-05-17T11:49:30;18.10;58.20
6468;DHT22;3267;48.794;9.928;2023-05-17T11:51:56;18.20;59.20
6468;DHT22;3267;48.794;9.928;2023-05-17T11:54:23;18.30;58.80
6468;DHT22;3267;48.794;9.928;2023-05-17T11:56:52;19.10;58.90
6468;DHT22;3267;48.794;9.928;2023-05-17T11:59:19;15.80;56.20
6468;DHT22;3267;48.794;9.928;2023-05-17T12:01:46;18.30;57.50
6468;DHT22;3267;48.794;9.928;2023-05-17T12:04:13;18.20;57.90
6468;DHT22;3267;48.794;9.928;2023-05-17T12:06:46;19.30;60.30
6468;DHT22;3267;48.794;9.928;2023-05-17T12:09:15;18.30;60.20
6468;DHT22;3267;48.794;9.928;2023-05-17T12:11:42;18.30;60.30
6468;DHT22;3267;48.794;9.928;2023-05-17T12:14:08;20.10;63.40
6468;DHT22;3267;48.794;9.928;2023-05-17T12:16:35;19.20;59.10
6468;DHT22;3267;48.794;9.928;2023-05-17T12:19:01;20.40;60.60
6468;DHT22;3267;48.794;9.928;2023-05-17T12:21:27;18.60;68.10
6468;DHT22;3267;48.794;9.928;2023-05-17T12:23:53;19.00;64.80
6468;DHT22;3267;48.794;9.928;2023-05-17T12:26:20;18.60;63.10
6468;DHT22;3267;48.794;9.928;2023-05-17T12:29:01;19.70;61.60
6468;DHT22;3267;48.794;9.928;2023-05-17T12:31:27;18.50;63.20
6468;DHT22;3267;48.794;9.928;2023-05-17T12:33:54;20.50;67.50
6468;DHT22;3267;48.794;9.928;2023-05-17T12:36:21;18.70;61.80
6468;DHT22;3267;48.794;9.928;2023-05-17T12:38:47;18.60;60.30
6468;DHT22;3267;48.794;9.928;2023-05-17T12:41:15;18.60;60.00
6468;DHT22;3267;48.794;9.928;2023-05-17T12:43:43;18.70;60.60
6468;DHT22;3267;48.794;9.928;2023-05-17T12:46:15;18.70;59.30
6468;DHT22;3267;48.794;9.928;2023-05-17T12:48:43;18.70;63.40
6468;DHT22;3267;48.794;9.928;2023-05-17T12:51:11;20.90;61.40
6468;DHT22;3267;48.794;9.928;2023-05-17T12:53:39;18.60;60.00
6468;DHT22;3267;48.794;9.928;2023-05-17T12:56:06;18.70;62.90
6468;DHT22;3267;48.794;9.928;2023-05-17T12:58:32;18.60;61.60
6468;DHT22;3267;48.794;9.928;2023-05-17T13:00:59;18.80;62.40
6468;DHT22;3267;48.794;9.928;2023-05-17T13:03:25;18.80;63.40
6468;DHT22;3267;48.794;9.928;2023-05-17T13:06:02;18.90;65.40
6468;DHT22;3267;48.794;9.928;2023-05-17T13:08:28;19.10;68.10
6468;DHT22;3267;48.794;9.928;2023-05-17T13:11:13;19.00;60.80
6468;DHT22;3267;48.794;9.928;2023-05-17T13:13:40;19.10;64.50
6468;DHT22;3267;48.794;9.928;2023-05-17T13:16:06;20.20;61.50
6468;DHT22;3267;48.794;9.928;2023-05-17T13:18:49;19.00;59.40
6468;DHT22;3267;48.794;9.928;2023-05-17T13:21:16;18.90;58.80
6468;DHT22;3267;48.794;9.928;2023-05-17T13:23:44;18.90;61.60
6468;DHT22;3267;48.794;9.928;2023-05-17T13:26:10;18.90;60.10
6468;DHT22;3267;48.794;9.928;2023-05-17T13:28:38;19.60;61.10
6468;DHT22;3267;48.794;9.928;2023-05-17T13:31:04;18.80;59.30
6468;DHT22;3267;48.794;9.928;2023-05-17T13:33:30;18.80;61.30
6468;DHT22;3267;48.794;9.928;2023-05-17T13:35:55;18.90;63.70
6468;DHT22;3267;48.794;9.928;2023-05-17T13:38:21;20.60;64.80
6468;DHT22;3267;48.794;9.928;2023-05-17T13:40:47;19.20;63.80
6468;DHT22;3267;48.794;9.928;2023-05-17T13:43:12;19.30;62.10
6468;DHT22;3267;48.794;9.928;2023-05-17T13:45:39;19.00;61.10
6468;DHT22;3267;48.794;9.928;2023-05-17T13:48:05;19.00;61.50
6468;DHT22;3267;48.794;9.928;2023-05-17T13:50:31;19.10;66.30
6468;DHT22;3267;48.794;9.928;2023-05-17T13:52:56;19.20;64.90
6468;DHT22;3267;48.794;9.928;2023-05-17T13:55:23;19.10;62.60
6468;DHT22;3267;48.794;9.928;2023-05-17T13:57:49;18.80;59.60
6468;DHT22;3267;48.794;9.928;2023-05-17T14:00:15;18.70;60.30
6468;DHT22;3267;48.794;9.928;2023-05-17T14:02:40;18.70;60.60
6468;DHT22;3267;48.794;9.928;2023-05-17T14:05:06;18.50;59.40
6468;DHT22;3267;48.794;9.928;2023-05-17T14:07:34;18.30;58.80
6468;DHT22;3267;48.794;9.928;2023-05-17T14:10:00;18.20;58.60
6468;DHT22;3267;48.794;9.928;2023-05-17T14:12:26;19.00;59.90
6468;DHT22;3267;48.794;9.928;2023-05-17T14:14:52;20.90;62.00
6468;DHT22;3267;48.794;9.928;2023-05-17T14:17:18;18.10;58.70
6468;DHT22;3267;48.794;9.928;2023-05-17T14:19:43;18.00;58.30
6468;DHT22;3267;48.794;9.928;2023-05-17T14:22:09;19.10;59.40
6468;DHT22;3267;48.794;9.928;2023-05-17T14:24:35;17.90;58.60
6468;DHT22;3267;48.794;9.928;2023-05-17T14:27:01;19.60;60.90
6468;DHT22;3267;48.794;9.928;2023-05-17T14:29:27;17.90;59.10
6468;DHT22;3267;48.794;9.928;2023-05-17T14:31:54;17.80;58.40
6468;DHT22;3267;48.794;9.928;2023-05-17T14:34:20;17.80;58.60
6468;DHT22;3267;48.794;9.928;2023-05-17T14:36:45;17.80;58.90
6468;DHT22;3267;48.794;9.928;2023-05-17T14:39:11;17.80;58.20
6468;DHT22;3267;48.794;9.928;2023-05-17T14:41:37;17.80;58.80
6468;DHT22;3267;48.794;9.928;2023-05-17T14:44:04;18.00;58.70
6468;DHT22;3267;48.794;9.928;2023-05-17T14:46:29;17.70;57.90
6468;DHT22;3267;48.794;9.928;2023-05-17T14:48:55;18.90;59.20
6468;DHT22;3267;48.794;9.928;2023-05-17T14:51:21;17.70;58.30
6468;DHT22;3267;48.794;9.928;2023-05-17T14:53:47;17.70;58.50
6468;DHT22;3267;48.794;9.928;2023-05-17T14:56:12;20.70;61.10
6468;DHT22;3267;48.794;9.928;2023-05-17T14:58:40;17.70;60.20
6468;DHT22;3267;48.794;9.928;2023-05-17T15:01:06;18.60;59.30
6468;DHT22;3267;48.794;9.928;2023-05-17T15:03:32;18.00;58.50
6468;DHT22;3267;48.794;9.928;2023-05-17T15:05:58;17.70;58.00
6468;DHT22;3267;48.794;9.928;2023-05-17T15:08:25;17.70;58.00
6468;DHT22;3267;48.794;9.928;2023-05-17T15:10:51;18.60;59.20
6468;DHT22;3267;48.794;9.928;2023-05-17T15:13:18;17.70;58.30
6468;DHT22;3267;48.794;9.928;2023-05-17T15:15:44;17.80;59.40
6468;DHT22;3267;48.794;9.928;2023-05-17T15:18:11;17.90;59.40
6468;DHT22;3267;48.794;9.928;2023-05-17T15:20:38;18.00;58.80
6468;DHT22;3267;48.794;9.928;2023-05-17T15:23:04;18.10;58.70
6468;DHT22;3267;48.794;9.928;2023-05-17T15:25:30;18.10;58.10
6468;DHT22;3267;48.794;9.928;2023-05-17T15:27:55;18.00;57.60
6468;DHT22;3267;48.794;9.928;2023-05-17T15:30:21;17.80;57.20
6468;DHT22;3267;48.794;9.928;2023-05-17T15:32:56;17.70;57.70
6468;DHT22;3267;48.794;9.928;2023-05-17T15:35:22;17.60;57.00
6468;DHT22;3267;48.794;9.928;2023-05-17T15:37:50;17.50;57.60
6468;DHT22;3267;48.794;9.928;2023-05-17T15:40:15;19.10;58.60
6468;DHT22;3267;48.794;9.928;2023-05-17T15:42:41;17.30;57.30
6468;DHT22;3267;48.794;9.928;2023-05-17T15:45:08;17.20;57.50
6468;DHT22;3267;48.794;9.928;2023-05-17T15:47:33;17.10;57.30
6468;DHT22;3267;48.794;9.928;2023-05-17T15:49:59;17.00;57.90
6468;DHT22;3267;48.794;9.928;2023-05-17T15:52:24;17.00;59.90
6468;DHT22;3267;48.794;9.928;2023-05-17T15:54:50;17.00;57.80
6468;DHT22;3267;48.794;9.928;2023-05-17T15:57:18;16.90;57.80
6468;DHT22;3267;48.794;9.928;2023-05-17T15:59:44;17.00;58.00
6468;DHT22;3267;48.794;9.928;2023-05-17T16:02:09;16.80;57.90
6468;DHT22;3267;48.794;9.928;2023-05-17T16:04:36;16.80;58.00
6468;DHT22;3267;48.794;9.928;2023-05-17T16:07:02;16.80;58.40
6468;DHT22;3267;48.794;9.928;2023-05-17T16:09:27;16.90;58.60
6468;DHT22;3267;48.794;9.928;2023-05-17T16:11:53;16.90;58.60
6468;DHT22;3267;48.794;9.928;2023-05-17T16:14:19;16.90;58.30
6468;DHT22;3267;48.794;9.928;2023-05-17T16:16:44;17.20;58.70
6468;DHT22;3267;48.794;9.928;2023-05-17T16:19:10;17.70;59.50
6468;DHT22;3267;48.794;9.928;2023-05-17T16:21:37;19.90;60.80
6468;DHT22;3267;48.794;9.928;2023-05-17T16:24:03;18.30;58.70
6468;DHT22;3267;48.794;9.928;2023-05-17T16:26:33;16.90;57.70
6468;DHT22;3267;48.794;9.928;2023-05-17T16:28:58;17.40;58.10
6468;DHT22;3267;48.794;9.928;2023-05-17T16:31:25;17.00;57.60
6468;DHT22;3267;48.794;9.928;2023-05-17T16:33:51;17.50;58.10
6468;DHT22;3267;48.794;9.928;2023-05-17T16:36:16;17.10;58.00
6468;DHT22;3267;48.794;9.928;2023-05-17T16:38:42;20.30;61.00
6468;DHT22;3267;48.794;9.928;2023-05-17T16:41:08;17.40;58.10
6468;DHT22;3267;48.794;9.928;2023-05-17T16:43:33;17.60;57.90
6468;DHT22;3267;48.794;9.928;2023-05-17T16:45:59;19.60;59.30
6468;DHT22;3267;48.794;9.928;2023-05-17T16:48:25;17.60;57.30
6468;DHT22;3267;48.794;9.928;2023-05-17T16:50:51;17.60;57.50
6468;DHT22;3267;48.794;9.928;2023-05-17T16:53:16;18.20;58.10
6468;DHT22;3267;48.794;9.928;2023-05-17T16:55:45;17.70;57.60
6468;DHT22;3267;48.794;9.928;2023-05-17T16:58:11;17.90;57.70
6468;DHT22;3267;48.794;9.928;2023-05-17T17:00:37;19.10;58.40
6468;DHT22;3267;48.794;9.928;2023-05-17T17:03:03;17.90;57.50
6468;DHT22;3267;48.794;9.928;2023-05-17T17:05:41;18.10;57.90
6468;DHT22;3267;48.794;9.928;2023-05-17T17:08:06;18.50;57.30
6468;DHT22;3267;48.794;9.928;2023-05-17T17:10:32;18.90;56.10
6468;DHT22;3267;48.794;9.928;2023-05-17T17:12:59;19.20;56.50
6468;DHT22;3267;48.794;9.928;2023-05-17T17:15:24;19.30;55.50
6468;DHT22;3267;48.794;9.928;2023-05-17T17:17:50;20.50;56.40
6468;DHT22;3267;48.794;9.928;2023-05-17T17:20:16;19.30;55.60
6468;DHT22;3267;48.794;9.928;2023-05-17T17:22:42;20.20;56.20
6468;DHT22;3267;48.794;9.928;2023-05-17T17:25:08;19.80;56.50
6468;DHT22;3267;48.794;9.928;2023-05-17T17:27:34;20.00;55.20
6468;DHT22;3267;48.794;9.928;2023-05-17T17:30:00;20.40;55.40
6468;DHT22;3267;48.794;9.928;2023-05-17T17:32:26;20.80;55.90
6468;DHT22;3267;48.794;9.928;2023-05-17T17:34:51;20.30;55.50
6468;DHT22;3267;48.794;9.928;2023-05-17T17:37:17;20.50;56.00
6468;DHT22;3267;48.794;9.928;2023-05-17T17:39:43;20.50;56.00
6468;DHT22;3267;48.794;9.928;2023-05-17T17:42:08;22.50;56.80
6468;DHT22;3267;48.794;9.928;2023-05-17T17:44:34;20.20;55.60
6468;DHT22;3267;48.794;9.928;2023-05-17T17:47:00;20.00;55.50
6468;DHT22;3267;48.794;9.928;2023-05-17T17:49:26;22.80;57.70
6468;DHT22;3267;48.794;9.928;2023-05-17T17:51:51;19.70;55.50
6468;DHT22;3267;48.794;9.928;2023-05-17T17:54:17;19.60;56.10
6468;DHT22;3267;48.794;9.928;2023-05-17T17:56:42;19.50;56.00
6468;DHT22;3267;48.794;9.928;2023-05-17T17:59:09;19.40;55.90
6468;DHT22;3267;48.794;9.928;2023-05-17T18:01:35;19.10;55.50
6468;DHT22;3267;48.794;9.928;2023-05-17T18:04:02;21.20;57.40
6468;DHT22;3267;48.794;9.928;2023-05-17T18:06:29;18.90;56.20
6468;DHT22;3267;48.794;9.928;2023-05-17T18:08:55;18.70;55.80
6468;DHT22;3267;48.794;9.928;2023-05-17T18:11:22;18.60;55.20
6468;DHT22;3267;48.794;9.928;2023-05-17T18:13:48;18.40;55.40
6468;DHT22;3267;48.794;9.928;2023-05-17T18:16:14;18.30;55.60
6468;DHT22;3267;48.794;9.928;2023-05-17T18:18:39;19.90;56.90
6468;DHT22;3267;48.794;9.928;2023-05-17T18:21:08;18.00;55.80
6468;DHT22;3267;48.794;9.928;2023-05-17T18:23:34;17.80;55.90
6468;DHT22;3267;48.794;9.928;2023-05-17T18:26:02;17.70;55.90
6468;DHT22;3267;48.794;9.928;2023-05-17T18:28:28;20.20;58.30
6468;DHT22;3267;48.794;9.928;2023-05-17T18:30:54;17.50;56.30
6468;DHT22;3267;48.794;9.928;2023-05-17T18:33:22;20.00;58.50
6468;DHT22;3267;48.794;9.928;2023-05-17T18:35:48;17.20;56.20
6468;DHT22;3267;48.794;9.928;2023-05-17T18:38:13;18.90;58.00
6468;DHT22;3267;48.794;9.928;2023-05-17T18:40:39;17.00;56.40
6468;DHT22;3267;48.794;9.928;2023-05-17T18:43:05;18.80;57.90
6468;DHT22;3267;48.794;9.928;2023-05-17T18:45:30;18.30;57.70
6468;DHT22;3267;48.794;9.928;2023-05-17T18:48:03;16.70;57.20
6468;DHT22;3267;48.794;9.928;2023-05-17T18:50:29;16.70;57.20
6468;DHT22;3267;48.794;9.928;2023-05-17T18:52:55;16.60;57.40
6468;DHT22;3267;48.794;9.928;2023-05-17T18:55:21;16.50;57.20
6468;DHT22;3267;48.794;9.928;2023-05-17T18:57:47;16.40;57.40
6468;DHT22;3267;48.794;9.928;2023-05-17T19:00:13;16.30;57.80
6468;DHT22;3267;48.794;9.928;2023-05-17T19:02:39;18.30;60.10
6468;DHT22;3267;48.794;9.928;2023-05-17T19:05:05;16.20;58.40
6468;DHT22;3267;48.794;9.928;2023-05-17T19:07:31;16.20;59.00
6468;DHT22;3267;48.794;9.928;2023-05-17T19:09:57;16.10;58.80
6468;DHT22;3267;48.794;9.928;2023-05-17T19:12:22;16.00;59.70
6468;DHT22;3267;48.794;9.928;2023-05-17T19:14:48;16.30;60.50
6468;DHT22;3267;48.794;9.928;2023-05-17T19:17:14;17.80;62.00
6468;DHT22;3267;48.794;9.928;2023-05-17T19:19:40;16.00;60.20
6468;DHT22;3267;48.794;9.928;2023-05-17T19:22:05;15.90;59.90
6468;DHT22;3267;48.794;9.928;2023-05-17T19:24:31;15.90;62.10
6468;DHT22;3267;48.794;9.928;2023-05-17T19:26:57;15.90;62.60
6468;DHT22;3267;48.794;9.928;2023-05-17T19:29:22;16.00;64.20
6468;DHT22;3267;48.794;9.928;2023-05-17T19:31:48;16.00;66.90
6468;DHT22;3267;48.794;9.928;2023-05-17T19:34:13;16.10;66.70
6468;DHT22;3267;48.794;9.928;2023-05-17T19:36:39;16.30;71.00
6468;DHT22;3267;48.794;9.928;2023-05-17T19:39:04;16.20;67.70
6468;DHT22;3267;48.794;9.928;2023-05-17T19:41:30;16.00;66.60
6468;DHT22;3267;48.794;9.928;2023-05-17T19:43:56;16.00;67.80
6468;DHT22;3267;48.794;9.928;2023-05-17T19:46:21;16.00;68.70
6468;DHT22;3267;48.794;9.928;2023-05-17T19:48:47;16.10;71.20
6468;DHT22;3267;48.794;9.928;2023-05-17T19:51:13;16.10;71.60
6468;DHT22;3267;48.794;9.928;2023-05-17T19:53:39;16.00;68.80
6468;DHT22;3267;48.794;9.928;2023-05-17T19:56:05;16.10;73.30
6468;DHT22;3267;48.794;9.928;2023-05-17T19:58:32;16.10;73.60
6468;DHT22;3267;48.794;9.928;2023-05-17T20:01:00;16.10;75.10
6468;DHT22;3267;48.794;9.928;2023-05-17T20:03:26;18.10;78.80
6468;DHT22;3267;48.794;9.928;2023-05-17T20:05:52;16.00;72.60
6468;DHT22;3267;48.794;9.928;2023-05-17T20:08:19;17.20;74.70
6468;DHT22;3267;48.794;9.928;2023-05-17T20:10:46;16.10;78.00
6468;DHT22;3267;48.794;9.928;2023-05-17T20:13:12;16.20;78.70
6468;DHT22;3267;48.794;9.928;2023-05-17T20:15:41;16.30;79.10
6468;DHT22;3267;48.794;9.928;2023-05-17T20:18:06;18.00;81.90
6468;DHT22;3267;48.794;9.928;2023-05-17T20:20:33;16.20;79.10
6468;DHT22;3267;48.794;9.928;2023-05-17T20:22:59;16.00;77.40
6468;DHT22;3267;48.794;9.928;2023-05-17T20:25:24;16.00;79.00
6468;DHT22;3267;48.794;9.928;2023-05-17T20:27:50;16.80;82.50
6468;DHT22;3267;48.794;9.928;2023-05-17T20:30:16;16.10;79.60
6468;DHT22;3267;48.794;9.928;2023-05-17T20:32:42;16.30;76.10
6468;DHT22;3267;48.794;9.928;2023-05-17T20:35:08;15.70;77.20
6468;DHT22;3267;48.794;9.928;2023-05-17T20:37:33;15.60;75.30
6468;DHT22;3267;48.794;9.928;2023-05-17T20:39:59;15.50;74.80
6468;DHT22;3267;48.794;9.928;2023-05-17T20:42:25;15.50;76.80
6468;DHT22;3267;48.794;9.928;2023-05-17T20:44:52;15.60;77.50
6468;DHT22;3267;48.794;9.928;2023-05-17T20:47:19;15.50;77.20
6468;DHT22;3267;48.794;9.928;2023-05-17T20:49:45;15.50;76.20
6468;DHT22;3267;48.794;9.928;2023-05-17T20:52:11;15.40;74.50
6468;DHT22;3267;48.794;9.928;2023-05-17T20:54:37;15.20;74.50
6468;DHT22;3267;48.794;9.928;2023-05-17T20:57:03;15.20;74.00
6468;DHT22;3267;48.794;9.928;2023-05-17T20:59:31;14.90;73.70
6468;DHT22;3267;48.794;9.928;2023-05-17T21:01:56;14.80;72.80
6468;DHT22;3267;48.794;9.928;2023-05-17T21:04:22;14.70;71.60
6468;DHT22;3267;48.794;9.928;2023-05-17T21:06:47;14.60;71.40
6468;DHT22;3267;48.794;9.928;2023-05-17T21:09:13;14.50;71.90
6468;DHT22;3267;48.794;9.928;2023-05-17T21:11:39;17.50;74.60
6468;DHT22;3267;48.794;9.928;2023-05-17T21:14:05;14.40;70.20
6468;DHT22;3267;48.794;9.928;2023-05-17T21:16:30;14.30;70.40
6468;DHT22;3267;48.794;9.928;2023-05-17T21:18:56;14.30;70.00
6468;DHT22;3267;48.794;9.928;2023-05-17T21:21:22;14.20;70.10
6468;DHT22;3267;48.794;9.928;2023-05-17T21:23:47;14.20;69.70
6468;DHT22;3267;48.794;9.928;2023-05-17T21:26:13;14.20;70.30
6468;DHT22;3267;48.794;9.928;2023-05-17T21:28:39;14.10;70.60
